createdAt,value
2023-03-26T00:00:15.372Z,88.50
2023-03-26T00:02:41.066Z,88.70
2023-03-26T00:05:05.332Z,89.10
2023-03-26T00:07:28.701Z,88.90
2023-03-26T00:09:51.979Z,88.40
2023-03-26T00:12:16.720Z,89.80
2023-03-26T00:14:40.859Z,89.60
2023-03-26T00:17:04.266Z,88.40
2023-03-26T00:19:27.950Z,88.60
2023-03-26T00:21:52.488Z,89.10
2023-03-26T00:24:16.360Z,87.60
2023-03-26T00:26:41.038Z,88.40
2023-03-26T00:29:08.166Z,88.50
2023-03-26T00:31:31.929Z,88.70
2023-03-26T00:33:55.612Z,88.20
2023-03-26T00:36:20.018Z,88.60
2023-03-26T00:38:44.693Z,88.60
2023-03-26T00:41:17.908Z,89.20
2023-03-26T00:43:41.498Z,88.20
2023-03-26T00:46:06.891Z,88.00
2023-03-26T00:48:42.263Z,88.30
2023-03-26T00:51:08.858Z,87.50
2023-03-26T00:53:33.377Z,87.70
2023-03-26T00:56:00.250Z,88.00
2023-03-26T00:58:23.659Z,88.00
2023-03-26T01:00:51.879Z,88.20
2023-03-26T01:03:27.840Z,88.50
2023-03-26T01:05:53.840Z,88.40
2023-03-26T01:08:30.633Z,88.40
2023-03-26T01:11:02.695Z,88.80
2023-03-26T01:13:26.582Z,87.30
2023-03-26T01:15:51.171Z,87.90
2023-03-26T01:18:16.060Z,87.80
2023-03-26T01:20:46.636Z,88.00
2023-03-26T01:23:10.505Z,88.00
2023-03-26T01:25:44.345Z,87.90
2023-03-26T01:28:12.502Z,87.40
2023-03-26T01:30:42.401Z,87.60
2023-03-26T01:33:14.157Z,87.30
2023-03-26T01:35:46.864Z,87.30
2023-03-26T01:38:23.884Z,88.00
2023-03-26T01:40:56.334Z,88.00
2023-03-26T01:43:30.027Z,88.40
2023-03-26T01:45:54.785Z,88.80
2023-03-26T01:48:18.592Z,89.30
2023-03-26T01:50:41.934Z,88.90
2023-03-26T01:53:05.607Z,89.10
2023-03-26T01:55:39.683Z,89.20
2023-03-26T01:58:11.941Z,89.10
2023-03-26T02:00:40.810Z,89.70
2023-03-26T02:03:22.392Z,89.90
2023-03-26T02:05:54.549Z,90.30
2023-03-26T02:08:25.231Z,90.20
2023-03-26T02:10:52.076Z,90.00
2023-03-26T02:13:17.091Z,90.10
2023-03-26T02:15:42.207Z,90.20
2023-03-26T02:18:05.858Z,90.20
2023-03-26T02:20:30.294Z,90.40
2023-03-26T02:22:53.751Z,90.60
2023-03-26T02:25:20.429Z,90.80
2023-03-26T02:27:46.252Z,91.10
2023-03-26T02:30:17.303Z,91.40
2023-03-26T02:32:44.749Z,91.60
2023-03-26T02:35:09.103Z,91.90
2023-03-26T02:37:33.877Z,91.90
2023-03-26T02:40:11.313Z,92.00
2023-03-26T02:42:37.837Z,92.20
2023-03-26T02:45:01.164Z,92.30
2023-03-26T02:47:52.297Z,92.40
2023-03-26T02:50:36.815Z,92.50
2023-03-26T02:53:21.727Z,92.50
2023-03-26T02:55:50.685Z,92.50
2023-03-26T02:58:17.320Z,92.60
2023-03-26T03:00:40.649Z,92.70
2023-03-26T03:03:24.584Z,92.80
2023-03-26T03:05:58.060Z,92.70
2023-03-26T03:08:34.032Z,92.80
2023-03-26T03:11:18.603Z,92.90
2023-03-26T03:13:43.514Z,92.90
2023-03-26T03:16:08.286Z,92.90
2023-03-26T03:18:32.962Z,92.90
2023-03-26T03:20:56.642Z,93.00
2023-03-26T03:23:19.971Z,93.10
2023-03-26T03:25:43.422Z,93.10
2023-03-26T03:28:06.946Z,93.20
2023-03-26T03:30:30.291Z,93.20
2023-03-26T03:33:14.111Z,93.20
2023-03-26T03:35:40.088Z,93.30
2023-03-26T03:38:03.707Z,93.30
2023-03-26T03:40:36.240Z,93.30
2023-03-26T03:42:59.864Z,93.40
2023-03-26T03:45:32.872Z,93.40
2023-03-26T03:48:12.649Z,93.40
2023-03-26T03:50:41.120Z,93.40
2023-03-26T03:53:18.565Z,93.50
2023-03-26T03:55:53.439Z,93.50
2023-03-26T03:58:21.772Z,93.50
2023-03-26T04:00:46.380Z,93.50
2023-03-26T04:03:39.308Z,93.50
2023-03-26T04:06:11.118Z,93.50
2023-03-26T04:08:35.602Z,93.40
2023-03-26T04:11:00.895Z,93.40
2023-03-26T04:13:42.818Z,93.40
2023-03-26T04:16:32.339Z,93.40
2023-03-26T04:18:57.308Z,93.30
2023-03-26T04:21:22.288Z,93.30
2023-03-26T04:23:45.611Z,93.30
2023-03-26T04:26:22.254Z,93.30
2023-03-26T04:29:04.007Z,93.20
2023-03-26T04:31:30.583Z,93.20
2023-03-26T04:34:00.023Z,93.30
2023-03-26T04:36:29.251Z,93.20
2023-03-26T04:38:53.620Z,93.40
2023-03-26T04:41:26.280Z,93.30
2023-03-26T04:43:58.177Z,93.40
2023-03-26T04:46:45.256Z,93.40
2023-03-26T04:49:17.576Z,93.50
2023-03-26T04:51:44.792Z,93.60
2023-03-26T04:54:25.508Z,93.50
2023-03-26T04:57:01.481Z,93.60
2023-03-26T04:59:45.156Z,93.70
2023-03-26T05:02:13.025Z,93.80
2023-03-26T05:04:46.381Z,93.90
2023-03-26T05:07:13.295Z,93.90
2023-03-26T05:09:41.411Z,93.90
2023-03-26T05:12:10.745Z,93.90
2023-03-26T05:14:52.678Z,94.00
2023-03-26T05:17:26.467Z,94.00
2023-03-26T05:19:49.837Z,94.00
2023-03-26T05:22:14.952Z,94.00
2023-03-26T05:24:57.404Z,94.00
2023-03-26T05:27:22.211Z,94.00
2023-03-26T05:29:45.959Z,94.10
2023-03-26T05:32:10.937Z,94.10
2023-03-26T05:34:34.426Z,94.10
2023-03-26T05:36:59.309Z,94.10
2023-03-26T05:39:54.871Z,94.10
2023-03-26T05:42:34.023Z,94.10
2023-03-26T05:45:13.878Z,94.20
2023-03-26T05:47:37.271Z,94.20
2023-03-26T05:50:00.817Z,94.20
2023-03-26T05:52:24.259Z,94.20
2023-03-26T05:55:09.179Z,94.20
2023-03-26T05:58:07.871Z,94.20
2023-03-26T06:00:49.848Z,94.20
2023-03-26T06:03:24.077Z,94.30
2023-03-26T06:06:09.849Z,94.30
2023-03-26T06:08:42.451Z,94.30
2023-03-26T06:11:08.761Z,94.30
2023-03-26T06:13:35.419Z,94.30
2023-03-26T06:15:59.085Z,94.30
2023-03-26T06:18:34.168Z,94.30
2023-03-26T06:21:15.993Z,94.40
2023-03-26T06:23:44.589Z,94.40
2023-03-26T06:26:41.557Z,94.40
2023-03-26T06:29:28.256Z,94.40
2023-03-26T06:32:18.428Z,94.40
2023-03-26T06:34:47.560Z,94.40
2023-03-26T06:37:10.864Z,94.40
2023-03-26T06:39:34.329Z,94.40
2023-03-26T06:42:10.579Z,94.40
2023-03-26T06:44:52.351Z,94.40
2023-03-26T06:47:48.018Z,94.40
2023-03-26T06:50:39.653Z,94.30
2023-03-26T06:53:11.188Z,94.20
2023-03-26T06:55:54.520Z,94.10
2023-03-26T06:58:40.701Z,94.10
2023-03-26T07:01:42.396Z,94.10
2023-03-26T07:04:26.075Z,94.20
2023-03-26T07:07:21.787Z,94.00
2023-03-26T07:10:17.625Z,94.10
2023-03-26T07:12:59.839Z,94.10
2023-03-26T07:15:43.137Z,94.10
2023-03-26T07:18:29.196Z,94.10
2023-03-26T07:20:53.840Z,94.10
2023-03-26T07:23:20.593Z,94.20
2023-03-26T07:26:14.470Z,94.20
2023-03-26T07:29:04.512Z,94.30
2023-03-26T07:31:56.656Z,94.40
2023-03-26T07:34:48.215Z,94.40
2023-03-26T07:37:34.081Z,94.50
2023-03-26T07:40:35.782Z,94.50
2023-03-26T07:43:34.911Z,94.50
2023-03-26T07:46:31.822Z,94.50
2023-03-26T07:49:20.382Z,94.60
2023-03-26T07:52:13.457Z,94.50
2023-03-26T07:54:50.466Z,94.60
2023-03-26T07:57:46.556Z,94.60
2023-03-26T08:00:41.217Z,94.70
2023-03-26T08:03:27.656Z,94.70
2023-03-26T08:06:04.423Z,94.80
2023-03-26T08:08:46.514Z,94.80
2023-03-26T08:11:49.692Z,94.80
2023-03-26T08:14:33.670Z,94.80
2023-03-26T08:17:07.879Z,94.90
2023-03-26T08:19:50.096Z,94.90
2023-03-26T08:22:26.281Z,94.90
2023-03-26T08:25:18.758Z,94.90
2023-03-26T08:27:45.565Z,94.90
2023-03-26T08:30:17.128Z,94.90
2023-03-26T08:32:41.548Z,94.90
2023-03-26T08:35:05.314Z,94.90
2023-03-26T08:37:30.026Z,94.90
2023-03-26T08:39:53.261Z,94.80
2023-03-26T08:43:09.174Z,94.90
2023-03-26T08:46:04.223Z,94.80
2023-03-26T08:49:03.863Z,94.80
2023-03-26T08:52:40.793Z,94.90
2023-03-26T08:55:33.350Z,94.90
2023-03-26T08:58:58.583Z,94.90
2023-03-26T09:02:09.102Z,94.90
2023-03-26T09:05:21.171Z,94.90
2023-03-26T09:08:54.339Z,94.90
2023-03-26T09:11:52.351Z,95.00
2023-03-26T09:15:15.949Z,94.90
2023-03-26T09:18:37.084Z,94.90
2023-03-26T09:21:42.984Z,94.90
2023-03-26T09:25:21.024Z,95.00
2023-03-26T09:28:16.314Z,94.90
2023-03-26T09:31:16.783Z,95.00
2023-03-26T09:34:00.031Z,95.00
2023-03-26T09:36:45.918Z,94.90
2023-03-26T09:39:18.464Z,95.00
2023-03-26T09:41:45.466Z,95.00
2023-03-26T09:44:40.071Z,95.00
2023-03-26T09:47:38.454Z,94.90
2023-03-26T09:50:21.534Z,94.80
2023-03-26T09:53:24.589Z,94.70
2023-03-26T09:56:04.595Z,94.80
2023-03-26T09:59:03.569Z,94.70
2023-03-26T10:01:37.599Z,94.60
2023-03-26T10:04:54.217Z,94.50
2023-03-26T10:07:55.879Z,94.30
2023-03-26T10:10:30.371Z,94.10
2023-03-26T10:13:11.627Z,94.00
2023-03-26T10:15:57.222Z,93.90
2023-03-26T10:18:36.568Z,93.90
2023-03-26T10:21:07.216Z,93.60
2023-03-26T10:24:01.754Z,93.60
2023-03-26T10:27:10.239Z,93.60
2023-03-26T10:30:23.166Z,93.50
2023-03-26T10:32:58.056Z,93.40
2023-03-26T10:35:38.249Z,92.90
2023-03-26T10:38:19.544Z,92.60
2023-03-26T10:40:55.374Z,92.70
2023-03-26T10:44:19.652Z,92.60
2023-03-26T10:47:01.369Z,92.90
2023-03-26T10:49:40.774Z,92.90
2023-03-26T10:52:07.987Z,93.10
2023-03-26T10:54:44.108Z,93.10
2023-03-26T10:57:17.547Z,93.20
2023-03-26T10:59:41.068Z,93.20
2023-03-26T11:02:30.952Z,93.20
2023-03-26T11:05:07.988Z,93.40
2023-03-26T11:07:42.852Z,93.10
2023-03-26T11:10:13.859Z,93.40
2023-03-26T11:12:45.917Z,93.00
2023-03-26T11:15:22.734Z,92.90
2023-03-26T11:17:58.357Z,92.40
2023-03-26T11:20:30.972Z,92.10
2023-03-26T11:23:16.862Z,91.80
2023-03-26T11:26:03.376Z,91.20
2023-03-26T11:29:03.670Z,91.40
2023-03-26T11:31:59.948Z,91.40
2023-03-26T11:34:31.117Z,92.00
2023-03-26T11:36:57.679Z,91.80
2023-03-26T11:39:27.243Z,91.90
2023-03-26T11:41:53.986Z,91.50
2023-03-26T11:44:29.858Z,91.30
2023-03-26T11:46:58.853Z,91.80
2023-03-26T11:49:24.117Z,92.00
2023-03-26T11:51:49.013Z,92.20
2023-03-26T11:54:14.776Z,92.10
2023-03-26T11:57:05.019Z,92.00
2023-03-26T11:59:37.027Z,91.40
2023-03-26T12:02:26.451Z,92.20
2023-03-26T12:04:55.540Z,92.20
2023-03-26T12:07:22.106Z,91.80
2023-03-26T12:09:52.702Z,91.40
2023-03-26T12:12:19.490Z,91.40
2023-03-26T12:14:45.038Z,91.00
2023-03-26T12:17:14.880Z,91.60
2023-03-26T12:19:42.923Z,91.70
2023-03-26T12:22:06.754Z,91.60
2023-03-26T12:24:32.302Z,91.50
2023-03-26T12:27:01.999Z,91.50
2023-03-26T12:29:27.821Z,91.10
2023-03-26T12:31:58.785Z,90.70
2023-03-26T12:34:24.512Z,90.90
2023-03-26T12:36:53.950Z,90.20
2023-03-26T12:40:06.516Z,90.00
2023-03-26T12:44:51.663Z,90.30
2023-03-26T12:45:15.708Z,90.70
2023-03-26T12:47:58.861Z,90.00
2023-03-26T12:50:34.199Z,90.10
2023-03-26T12:53:14.862Z,90.80
2023-03-26T12:55:44.108Z,91.40
2023-03-26T12:58:27.019Z,90.60
2023-03-26T13:01:02.564Z,90.90
2023-03-26T13:03:41.856Z,90.40
2023-03-26T13:06:24.101Z,90.50
2023-03-26T13:09:12.237Z,90.60
2023-03-26T13:11:47.054Z,90.20
2023-03-26T13:14:31.473Z,89.40
2023-03-26T13:17:00.959Z,89.30
2023-03-26T13:19:32.598Z,89.30
2023-03-26T13:22:16.330Z,89.00
2023-03-26T13:24:51.520Z,88.20
2023-03-26T13:27:38.097Z,88.40
2023-03-26T13:30:07.553Z,87.30
2023-03-26T13:32:48.217Z,88.30
2023-03-26T13:35:24.310Z,87.20
2023-03-26T13:37:56.729Z,86.90
2023-03-26T13:40:30.678Z,86.90
2023-03-26T13:43:28.450Z,87.30
2023-03-26T13:45:59.544Z,87.70
2023-03-26T13:48:28.888Z,85.90
2023-03-26T13:51:01.788Z,85.90
2023-03-26T13:53:30.876Z,85.80
2023-03-26T13:55:57.056Z,84.50
2023-03-26T13:58:34.631Z,84.90
2023-03-26T14:01:05.273Z,86.40
2023-03-26T14:03:41.104Z,86.30
2023-03-26T14:06:14.370Z,85.30
2023-03-26T14:08:42.603Z,84.90
2023-03-26T14:11:13.445Z,83.90
2023-03-26T14:13:45.046Z,84.50
2023-03-26T14:16:17.722Z,85.40
2023-03-26T14:18:51.950Z,85.70
2023-03-26T14:21:40.851Z,87.40
2023-03-26T14:24:52.236Z,86.00
2023-03-26T14:27:34.984Z,85.80
2023-03-26T14:30:37.773Z,85.60
2023-03-26T14:33:26.997Z,85.90
2023-03-26T14:36:02.597Z,85.20
2023-03-26T14:38:51.342Z,86.60
2023-03-26T14:41:26.116Z,86.80
2023-03-26T14:44:54.429Z,87.20
2023-03-26T14:47:19.570Z,87.90
2023-03-26T14:50:31.485Z,87.90
2023-03-26T14:53:01.340Z,87.20
2023-03-26T14:55:52.217Z,87.20
2023-03-26T14:59:14.379Z,87.60
2023-03-26T15:02:16.167Z,87.10
2023-03-26T15:05:21.276Z,86.70
2023-03-26T15:08:45.403Z,87.40
2023-03-26T15:11:25.931Z,86.60
2023-03-26T15:14:46.034Z,87.50
2023-03-26T15:18:17.892Z,87.50
2023-03-26T15:21:51.087Z,87.50
2023-03-26T15:25:20.644Z,87.70
2023-03-26T15:28:35.485Z,88.40
2023-03-26T15:31:21.744Z,88.10
2023-03-26T15:34:48.697Z,89.00
2023-03-26T15:37:47.993Z,89.00
2023-03-26T15:40:28.710Z,89.90
2023-03-26T15:43:03.970Z,89.60
2023-03-26T15:45:41.994Z,90.00
2023-03-26T15:48:35.713Z,90.00
2023-03-26T15:51:46.750Z,90.20
2023-03-26T15:54:23.796Z,90.60
2023-03-26T15:57:10.306Z,90.10
2023-03-26T15:59:43.791Z,90.50
2023-03-26T16:02:26.167Z,91.00
2023-03-26T16:04:54.581Z,90.90
2023-03-26T16:07:50.604Z,90.80
2023-03-26T16:10:38.329Z,90.80
2023-03-26T16:13:34.859Z,91.30
2023-03-26T16:16:24.159Z,90.90
2023-03-26T16:18:56.511Z,90.80
2023-03-26T16:21:54.408Z,91.10
2023-03-26T16:24:31.964Z,91.60
2023-03-26T16:27:33.483Z,92.00
2023-03-26T16:30:29.062Z,91.60
2023-03-26T16:32:56.709Z,91.20
2023-03-26T16:36:04.466Z,90.80
2023-03-26T16:38:28.547Z,91.10
2023-03-26T16:41:00.639Z,90.60
2023-03-26T16:43:57.213Z,90.30
2023-03-26T16:46:35.495Z,89.00
2023-03-26T16:49:06.853Z,88.50
2023-03-26T16:51:54.573Z,88.80
2023-03-26T16:54:26.154Z,88.50
2023-03-26T16:56:56.708Z,88.50
2023-03-26T17:00:08.009Z,88.70
2023-03-26T17:02:36.626Z,89.00
2023-03-26T17:05:11.626Z,88.80
2023-03-26T17:07:43.098Z,89.10
2023-03-26T17:10:16.613Z,89.40
2023-03-26T17:12:45.287Z,90.00
2023-03-26T17:15:27.985Z,90.10
2023-03-26T17:18:16.342Z,90.10
2023-03-26T17:20:44.789Z,89.90
2023-03-26T17:23:28.716Z,89.60
2023-03-26T17:26:05.945Z,89.70
2023-03-26T17:28:55.715Z,89.80
2023-03-26T17:31:32.546Z,90.20
2023-03-26T17:33:56.579Z,89.00
2023-03-26T17:36:45.969Z,88.60
2023-03-26T17:39:38.183Z,87.90
2023-03-26T17:42:20.275Z,86.20
2023-03-26T17:44:50.477Z,85.10
2023-03-26T17:47:33.551Z,86.00
2023-03-26T17:50:04.509Z,84.40
2023-03-26T17:52:47.950Z,83.90
2023-03-26T17:55:20.058Z,85.10
2023-03-26T17:57:46.400Z,85.90
2023-03-26T18:00:19.304Z,84.50
2023-03-26T18:02:48.955Z,85.20
2023-03-26T18:05:16.071Z,84.80
2023-03-26T18:08:16.679Z,82.10
2023-03-26T18:11:16.980Z,82.60
2023-03-26T18:14:33.210Z,83.30
2023-03-26T18:17:00.358Z,82.70
2023-03-26T18:19:25.854Z,82.00
2023-03-26T18:21:52.572Z,83.30
2023-03-26T18:24:21.013Z,81.90
2023-03-26T18:26:49.758Z,82.20
2023-03-26T18:29:23.844Z,82.20
2023-03-26T18:31:49.782Z,82.70
2023-03-26T18:34:18.692Z,83.30
2023-03-26T18:36:42.013Z,83.80
2023-03-26T18:39:06.081Z,82.00
2023-03-26T18:41:34.005Z,80.70
2023-03-26T18:44:03.713Z,82.60
2023-03-26T18:46:27.102Z,81.30
2023-03-26T18:48:50.770Z,80.30
2023-03-26T18:51:15.938Z,80.30
2023-03-26T18:53:42.328Z,81.30
2023-03-26T18:56:21.833Z,80.80
2023-03-26T18:58:52.850Z,80.00
2023-03-26T19:01:25.382Z,79.80
2023-03-26T19:03:50.055Z,80.00
2023-03-26T19:06:15.561Z,80.10
2023-03-26T19:08:40.165Z,80.90
2023-03-26T19:11:04.832Z,79.50
2023-03-26T19:13:29.571Z,80.60
2023-03-26T19:15:55.567Z,77.40
2023-03-26T19:18:23.628Z,78.40
2023-03-26T19:20:50.882Z,80.00
2023-03-26T19:23:17.693Z,78.50
2023-03-26T19:25:44.102Z,77.50
2023-03-26T19:28:07.610Z,78.50
2023-03-26T19:30:34.090Z,79.10
2023-03-26T19:33:12.359Z,77.60
2023-03-26T19:35:42.579Z,77.00
2023-03-26T19:38:21.580Z,79.30
2023-03-26T19:40:44.927Z,78.00
2023-03-26T19:43:12.646Z,77.80
2023-03-26T19:45:36.258Z,77.40
2023-03-26T19:48:46.705Z,76.60
2023-03-26T19:51:09.111Z,77.80
2023-03-26T19:53:34.854Z,77.60
2023-03-26T19:56:00.214Z,76.20
2023-03-26T19:58:23.663Z,75.80
2023-03-26T20:00:47.165Z,75.80
2023-03-26T20:03:10.585Z,74.90
2023-03-26T20:05:36.420Z,75.20
2023-03-26T20:08:04.685Z,75.40
2023-03-26T20:10:32.650Z,77.50
2023-03-26T20:12:56.008Z,76.90
2023-03-26T20:15:24.104Z,74.90
2023-03-26T20:17:50.176Z,74.60
2023-03-26T20:20:15.516Z,75.70
2023-03-26T20:22:39.413Z,75.00
2023-03-26T20:25:13.867Z,75.80
2023-03-26T20:27:37.201Z,73.60
2023-03-26T20:30:00.460Z,74.40
2023-03-26T20:32:27.150Z,74.70
2023-03-26T20:34:50.745Z,73.70
2023-03-26T20:37:13.973Z,73.90
2023-03-26T20:39:37.818Z,75.00
2023-03-26T20:42:02.425Z,74.90
2023-03-26T20:44:26.877Z,73.70
2023-03-26T20:46:51.471Z,72.00
2023-03-26T20:49:15.810Z,71.50
2023-03-26T20:51:41.874Z,72.60
2023-03-26T20:54:06.279Z,75.20
2023-03-26T20:56:29.889Z,74.40
2023-03-26T20:59:09.903Z,74.10
2023-03-26T21:01:34.725Z,73.30
2023-03-26T21:03:58.054Z,74.00
2023-03-26T21:06:21.306Z,73.20
2023-03-26T21:08:46.427Z,72.50
2023-03-26T21:11:26.859Z,73.40
2023-03-26T21:14:00.427Z,76.10
2023-03-26T21:16:24.586Z,73.20
2023-03-26T21:18:48.715Z,73.00
2023-03-26T21:21:34.027Z,72.80
2023-03-26T21:24:03.193Z,71.80
2023-03-26T21:26:32.810Z,71.10
2023-03-26T21:28:58.133Z,70.30
2023-03-26T21:31:24.362Z,71.70
2023-03-26T21:33:50.046Z,74.90
2023-03-26T21:36:14.515Z,75.40
2023-03-26T21:38:39.647Z,73.90
2023-03-26T21:41:04.396Z,74.10
2023-03-26T21:43:28.575Z,73.00
2023-03-26T21:45:55.070Z,73.90
2023-03-26T21:48:19.234Z,75.10
2023-03-26T21:50:43.521Z,73.60
2023-03-26T21:53:07.936Z,72.40
2023-03-26T21:55:43.496Z,73.70
2023-03-26T21:58:33.481Z,73.10
2023-03-26T22:01:18.616Z,75.70
2023-03-26T22:04:04.140Z,74.30
2023-03-26T22:06:32.639Z,74.20
2023-03-26T22:08:56.423Z,73.40
2023-03-26T22:11:19.710Z,74.10
2023-03-26T22:13:43.612Z,74.90
2023-03-26T22:16:10.802Z,74.50
2023-03-26T22:18:34.651Z,77.30
2023-03-26T22:20:59.136Z,79.20
2023-03-26T22:23:22.544Z,75.60
2023-03-26T22:25:45.920Z,76.80
2023-03-26T22:28:09.467Z,77.20
2023-03-26T22:30:34.411Z,76.80
2023-03-26T22:32:59.792Z,77.40
2023-03-26T22:35:23.189Z,79.60
2023-03-26T22:37:47.435Z,77.50
2023-03-26T22:40:13.352Z,77.10
2023-03-26T22:42:36.849Z,77.60
2023-03-26T22:45:00.151Z,77.90
2023-03-26T22:47:23.477Z,78.30
2023-03-26T22:49:48.104Z,80.10
2023-03-26T22:52:11.631Z,79.90
2023-03-26T22:54:36.473Z,78.60
2023-03-26T22:56:59.943Z,78.90
2023-03-26T22:59:23.206Z,78.50
2023-03-26T23:01:46.698Z,78.10
2023-03-26T23:04:10.091Z,78.20
2023-03-26T23:06:34.747Z,78.40
2023-03-26T23:08:58.257Z,78.60
2023-03-26T23:11:23.221Z,79.50
2023-03-26T23:13:47.924Z,79.50
2023-03-26T23:16:16.147Z,79.50
2023-03-26T23:18:39.812Z,79.30
2023-03-26T23:21:03.200Z,79.50
2023-03-26T23:23:30.888Z,79.50
2023-03-26T23:25:54.889Z,79.50
2023-03-26T23:28:18.593Z,79.20
2023-03-26T23:30:41.945Z,79.90
2023-03-26T23:33:05.423Z,79.60
2023-03-26T23:35:29.336Z,79.80
2023-03-26T23:37:52.591Z,80.00
2023-03-26T23:40:17.324Z,80.40
2023-03-26T23:42:40.734Z,80.50
2023-03-26T23:45:04.152Z,80.50
2023-03-26T23:47:34.212Z,80.70
2023-03-26T23:49:57.610Z,81.20
2023-03-26T23:52:20.880Z,81.50
2023-03-26T23:54:45.060Z,81.10
2023-03-26T23:57:10.629Z,80.90
2023-03-26T23:59:35.480Z,81.00
